sensor_id;sensor_type;location;lat;lon;timestamp;noise_LAeq;noise_LA_min;noise_LA_max;noise_LA01;noise_LA95
67900;Laerm;54700;51.796;10.956;2023-02-01T00:01:05;41.69;36.59;54.28;;
67900;Laerm;54700;51.796;10.956;2023-02-01T00:03:33;49.93;33.91;65.00;;
67900;Laerm;54700;51.796;10.956;2023-02-01T00:06:00;45.46;35.65;64.14;;
67900;Laerm;54700;51.796;10.956;2023-02-01T00:08:28;42.48;35.73;61.84;;
67900;Laerm;54700;51.796;10.956;2023-02-01T00:10:59;40.92;33.46;54.22;;
67900;Laerm;54700;51.796;10.956;2023-02-01T00:13:29;43.10;34.21;61.46;;
67900;Laerm;54700;51.796;10.956;2023-02-01T00:16:08;54.28;36.63;73.12;;
67900;Laerm;54700;51.796;10.956;2023-02-01T00:18:38;42.18;34.46;56.47;;
67900;Laerm;54700;51.796;10.956;2023-02-01T00:21:05;49.69;33.94;65.93;;
67900;Laerm;54700;51.796;10.956;2023-02-01T00:23:35;54.47;34.26;71.93;;
67900;Laerm;54700;51.796;10.956;2023-02-01T00:26:04;36.95;33.20;49.60;;
67900;Laerm;54700;51.796;10.956;2023-02-01T00:28:32;38.49;33.27;56.68;;
67900;Laerm;54700;51.796;10.956;2023-02-01T00:31:00;43.86;34.57;59.50;;
67900;Laerm;54700;51.796;10.956;2023-02-01T00:33:28;43.83;35.59;60.39;;
67900;Laerm;54700;51.796;10.956;2023-02-01T00:35:58;44.45;33.81;65.96;;
67900;Laerm;54700;51.796;10.956;2023-02-01T00:38:25;48.05;36.61;62.38;;
67900;Laerm;54700;51.796;10.956;2023-02-01T00:41:01;43.66;35.97;55.04;;
67900;Laerm;54700;51.796;10.956;2023-02-01T00:43:28;41.50;34.20;56.40;;
67900;Laerm;54700;51.796;10.956;2023-02-01T00:45:55;42.49;35.91;56.93;;
67900;Laerm;54700;51.796;10.956;2023-02-01T00:48:22;44.20;36.93;56.62;;
67900;Laerm;54700;51.796;10.956;2023-02-01T00:50:50;40.39;34.50;49.50;;
67900;Laerm;54700;51.796;10.956;2023-02-01T00:53:21;45.52;36.62;62.20;;
67900;Laerm;54700;51.796;10.956;2023-02-01T00:55:48;54.17;36.32;67.45;;
67900;Laerm;54700;51.796;10.956;2023-02-01T00:58:15;47.43;37.99;64.32;;
67900;Laerm;54700;51.796;10.956;2023-02-01T01:00:42;47.43;38.39;63.02;;
67900;Laerm;54700;51.796;10.956;2023-02-01T01:03:10;51.58;36.58;68.50;;
67900;Laerm;54700;51.796;10.956;2023-02-01T01:05:44;46.39;33.15;64.55;;
67900;Laerm;54700;51.796;10.956;2023-02-01T01:08:11;38.83;33.22;47.27;;
67900;Laerm;54700;51.796;10.956;2023-02-01T01:10:40;42.14;32.60;58.53;;
67900;Laerm;54700;51.796;10.956;2023-02-01T01:13:08;52.36;34.50;68.51;;
67900;Laerm;54700;51.796;10.956;2023-02-01T01:15:36;42.12;34.74;51.40;;
67900;Laerm;54700;51.796;10.956;2023-02-01T01:18:03;43.42;33.32;64.79;;
67900;Laerm;54700;51.796;10.956;2023-02-01T01:20:30;50.17;37.37;64.22;;
67900;Laerm;54700;51.796;10.956;2023-02-01T01:22:59;40.84;35.86;51.10;;
67900;Laerm;54700;51.796;10.956;2023-02-01T01:25:26;43.04;35.98;60.84;;
67900;Laerm;54700;51.796;10.956;2023-02-01T01:27:58;49.95;36.80;70.47;;
67900;Laerm;54700;51.796;10.956;2023-02-01T01:30:26;53.14;36.63;68.81;;
67900;Laerm;54700;51.796;10.956;2023-02-01T01:32:53;51.90;36.31;66.99;;
67900;Laerm;54700;51.796;10.956;2023-02-01T01:35:21;44.36;36.62;59.55;;
67900;Laerm;54700;51.796;10.956;2023-02-01T01:37:48;49.72;38.38;71.08;;
67900;Laerm;54700;51.796;10.956;2023-02-01T01:40:15;44.86;36.17;58.50;;
67900;Laerm;54700;51.796;10.956;2023-02-01T01:42:44;44.56;37.20;58.53;;
67900;Laerm;54700;51.796;10.956;2023-02-01T01:45:22;50.13;33.90;67.41;;
67900;Laerm;54700;51.796;10.956;2023-02-01T01:47:53;46.02;35.94;68.80;;
67900;Laerm;54700;51.796;10.956;2023-02-01T01:50:26;50.36;36.44;66.63;;
67900;Laerm;54700;51.796;10.956;2023-02-01T01:52:55;53.42;33.45;70.27;;
67900;Laerm;54700;51.796;10.956;2023-02-01T01:55:25;46.45;33.68;61.38;;
67900;Laerm;54700;51.796;10.956;2023-02-01T01:57:59;37.32;32.40;46.25;;
67900;Laerm;54700;51.796;10.956;2023-02-01T02:00:29;52.43;37.07;72.85;;
67900;Laerm;54700;51.796;10.956;2023-02-01T02:03:03;44.42;36.51;57.51;;
67900;Laerm;54700;51.796;10.956;2023-02-01T02:05:34;50.05;37.62;63.14;;
67900;Laerm;54700;51.796;10.956;2023-02-01T02:08:02;48.00;38.82;62.84;;
67900;Laerm;54700;51.796;10.956;2023-02-01T02:10:30;51.61;35.73;67.13;;
67900;Laerm;54700;51.796;10.956;2023-02-01T02:13:12;51.07;35.38;66.11;;
67900;Laerm;54700;51.796;10.956;2023-02-01T02:15:45;55.62;37.16;71.14;;
67900;Laerm;54700;51.796;10.956;2023-02-01T02:18:26;45.34;33.75;63.51;;
67900;Laerm;54700;51.796;10.956;2023-02-01T02:21:15;44.79;34.19;66.39;;
67900;Laerm;54700;51.796;10.956;2023-02-01T02:24:06;42.44;34.74;65.04;;
67900;Laerm;54700;51.796;10.956;2023-02-01T02:26:56;43.88;35.62;62.49;;
67900;Laerm;54700;51.796;10.956;2023-02-01T02:32:47;44.07;36.84;60.69;;
67900;Laerm;54700;51.796;10.956;2023-02-01T02:35:27;41.03;34.54;56.76;;
67900;Laerm;54700;51.796;10.956;2023-02-01T02:38:05;41.77;34.88;55.08;;
67900;Laerm;54700;51.796;10.956;2023-02-01T02:40:44;47.71;37.10;57.70;;
67900;Laerm;54700;51.796;10.956;2023-02-01T02:43:19;44.96;36.42;59.01;;
67900;Laerm;54700;51.796;10.956;2023-02-01T02:46:09;45.16;35.16;60.70;;
67900;Laerm;54700;51.796;10.956;2023-02-01T02:49:00;52.31;35.82;66.24;;
67900;Laerm;54700;51.796;10.956;2023-02-01T02:51:35;45.07;35.52;62.06;;
67900;Laerm;54700;51.796;10.956;2023-02-01T02:54:24;41.47;34.09;52.30;;
67900;Laerm;54700;51.796;10.956;2023-02-01T02:57:13;43.32;34.95;71.49;;
67900;Laerm;54700;51.796;10.956;2023-02-01T03:00:05;41.68;34.87;53.34;;
67900;Laerm;54700;51.796;10.956;2023-02-01T03:03:00;51.00;36.90;66.78;;
67900;Laerm;54700;51.796;10.956;2023-02-01T03:05:47;42.90;35.77;56.19;;
67900;Laerm;54700;51.796;10.956;2023-02-01T03:08:19;52.46;32.72;67.86;;
67900;Laerm;54700;51.796;10.956;2023-02-01T03:10:51;40.28;32.95;53.87;;
67900;Laerm;54700;51.796;10.956;2023-02-01T03:13:27;57.21;35.49;73.94;;
67900;Laerm;54700;51.796;10.956;2023-02-01T03:16:01;39.82;33.26;55.25;;
67900;Laerm;54700;51.796;10.956;2023-02-01T03:18:35;46.74;35.31;65.44;;
67900;Laerm;54700;51.796;10.956;2023-02-01T03:21:07;54.75;35.79;71.29;;
67900;Laerm;54700;51.796;10.956;2023-02-01T03:23:37;43.84;34.91;56.59;;
67900;Laerm;54700;51.796;10.956;2023-02-01T03:26:08;52.79;35.90;67.43;;
67900;Laerm;54700;51.796;10.956;2023-02-01T03:28:39;54.64;33.86;68.52;;
67900;Laerm;54700;51.796;10.956;2023-02-01T03:31:10;50.92;33.61;68.39;;
67900;Laerm;54700;51.796;10.956;2023-02-01T03:33:37;58.16;37.36;69.81;;
67900;Laerm;54700;51.796;10.956;2023-02-01T03:36:11;54.65;36.66;71.03;;
67900;Laerm;54700;51.796;10.956;2023-02-01T03:38:50;58.50;41.20;69.81;;
67900;Laerm;54700;51.796;10.956;2023-02-01T03:41:27;55.39;36.45;68.08;;
67900;Laerm;54700;51.796;10.956;2023-02-01T03:43:58;57.76;35.61;71.99;;
67900;Laerm;54700;51.796;10.956;2023-02-01T03:46:31;40.78;35.73;49.58;;
67900;Laerm;54700;51.796;10.956;2023-02-01T03:49:10;52.01;34.47;68.33;;
67900;Laerm;54700;51.796;10.956;2023-02-01T03:51:42;54.67;35.49;71.82;;
67900;Laerm;54700;51.796;10.956;2023-02-01T03:54:13;49.14;33.67;63.88;;
67900;Laerm;54700;51.796;10.956;2023-02-01T03:56:43;48.84;34.40;64.51;;
67900;Laerm;54700;51.796;10.956;2023-02-01T03:59:13;49.37;36.25;64.09;;
67900;Laerm;54700;51.796;10.956;2023-02-01T04:01:45;38.27;33.63;56.63;;
67900;Laerm;54700;51.796;10.956;2023-02-01T04:04:12;53.70;34.21;67.91;;
67900;Laerm;54700;51.796;10.956;2023-02-01T04:06:45;52.98;33.39;68.24;;
67900;Laerm;54700;51.796;10.956;2023-02-01T04:09:14;54.19;34.74;68.75;;
67900;Laerm;54700;51.796;10.956;2023-02-01T04:11:43;53.13;36.80;69.96;;
67900;Laerm;54700;51.796;10.956;2023-02-01T04:14:10;55.53;38.58;66.64;;
67900;Laerm;54700;51.796;10.956;2023-02-01T04:16:37;55.55;36.28;70.05;;
67900;Laerm;54700;51.796;10.956;2023-02-01T04:19:04;53.13;35.05;70.40;;
67900;Laerm;54700;51.796;10.956;2023-02-01T04:21:34;58.56;34.65;73.76;;
67900;Laerm;54700;51.796;10.956;2023-02-01T04:24:01;51.18;35.75;69.22;;
67900;Laerm;54700;51.796;10.956;2023-02-01T04:26:30;56.24;36.09;67.81;;
67900;Laerm;54700;51.796;10.956;2023-02-01T04:28:56;58.42;36.25;75.77;;
67900;Laerm;54700;51.796;10.956;2023-02-01T04:31:26;54.71;36.02;67.44;;
67900;Laerm;54700;51.796;10.956;2023-02-01T04:33:56;59.93;36.95;70.71;;
67900;Laerm;54700;51.796;10.956;2023-02-01T04:36:26;48.81;34.75;65.97;;
67900;Laerm;54700;51.796;10.956;2023-02-01T04:38:53;56.98;35.79;69.69;;
67900;Laerm;54700;51.796;10.956;2023-02-01T04:41:21;57.86;36.76;69.25;;
67900;Laerm;54700;51.796;10.956;2023-02-01T04:43:53;58.75;34.74;70.51;;
67900;Laerm;54700;51.796;10.956;2023-02-01T04:46:20;60.39;36.11;70.70;;
67900;Laerm;54700;51.796;10.956;2023-02-01T04:48:50;56.08;36.92;70.96;;
67900;Laerm;54700;51.796;10.956;2023-02-01T04:51:18;61.51;38.47;70.42;;
67900;Laerm;54700;51.796;10.956;2023-02-01T04:53:47;61.36;42.15;69.98;;
67900;Laerm;54700;51.796;10.956;2023-02-01T04:56:15;63.57;47.63;75.31;;
67900;Laerm;54700;51.796;10.956;2023-02-01T04:58:43;57.75;35.89;75.27;;
67900;Laerm;54700;51.796;10.956;2023-02-01T05:01:17;59.80;35.56;71.75;;
67900;Laerm;54700;51.796;10.956;2023-02-01T05:03:47;58.71;38.60;70.78;;
67900;Laerm;54700;51.796;10.956;2023-02-01T05:06:24;59.04;36.88;70.44;;
67900;Laerm;54700;51.796;10.956;2023-02-01T05:08:52;62.33;38.99;71.52;;
67900;Laerm;54700;51.796;10.956;2023-02-01T05:11:20;60.55;39.34;71.67;;
67900;Laerm;54700;51.796;10.956;2023-02-01T05:14:05;58.02;36.99;69.93;;
67900;Laerm;54700;51.796;10.956;2023-02-01T05:16:34;60.80;41.72;73.72;;
67900;Laerm;54700;51.796;10.956;2023-02-01T05:19:04;60.90;42.07;69.97;;
67900;Laerm;54700;51.796;10.956;2023-02-01T05:21:33;58.36;36.94;70.47;;
67900;Laerm;54700;51.796;10.956;2023-02-01T05:24:04;60.83;38.92;72.28;;
67900;Laerm;54700;51.796;10.956;2023-02-01T05:26:40;61.59;40.02;74.26;;
67900;Laerm;54700;51.796;10.956;2023-02-01T05:29:09;62.15;40.01;70.75;;
67900;Laerm;54700;51.796;10.956;2023-02-01T05:31:39;59.06;39.18;72.57;;
67900;Laerm;54700;51.796;10.956;2023-02-01T05:34:08;61.60;46.20;72.52;;
67900;Laerm;54700;51.796;10.956;2023-02-01T05:36:38;62.36;44.04;71.73;;
67900;Laerm;54700;51.796;10.956;2023-02-01T05:39:05;61.04;42.06;71.15;;
67900;Laerm;54700;51.796;10.956;2023-02-01T05:41:33;59.98;43.08;73.25;;
67900;Laerm;54700;51.796;10.956;2023-02-01T05:44:13;62.62;45.02;73.32;;
67900;Laerm;54700;51.796;10.956;2023-02-01T05:46:48;64.95;43.28;75.43;;
67900;Laerm;54700;51.796;10.956;2023-02-01T05:49:18;64.56;50.04;77.84;;
67900;Laerm;54700;51.796;10.956;2023-02-01T05:54:55;62.43;46.53;76.35;;
67900;Laerm;54700;51.796;10.956;2023-02-01T06:01:25;65.17;50.70;72.54;;
67900;Laerm;54700;51.796;10.956;2023-02-01T06:03:47;62.58;50.91;72.27;;
67900;Laerm;54700;51.796;10.956;2023-02-01T06:06:29;64.92;51.48;72.42;;
67900;Laerm;54700;51.796;10.956;2023-02-01T06:09:04;62.21;43.33;74.18;;
67900;Laerm;54700;51.796;10.956;2023-02-01T06:11:42;64.78;53.88;72.31;;
67900;Laerm;54700;51.796;10.956;2023-02-01T06:14:25;62.91;47.33;71.34;;
67900;Laerm;54700;51.796;10.956;2023-02-01T06:16:53;63.80;45.18;72.39;;
67900;Laerm;54700;51.796;10.956;2023-02-01T06:19:32;63.89;43.55;73.19;;
67900;Laerm;54700;51.796;10.956;2023-02-01T06:22:02;63.59;48.48;71.00;;
67900;Laerm;54700;51.796;10.956;2023-02-01T06:24:47;64.68;49.58;73.30;;
67900;Laerm;54700;51.796;10.956;2023-02-01T06:27:22;64.53;51.82;75.14;;
67900;Laerm;54700;51.796;10.956;2023-02-01T06:29:58;61.32;42.15;70.90;;
67900;Laerm;54700;51.796;10.956;2023-02-01T06:32:28;64.43;46.52;75.27;;
67900;Laerm;54700;51.796;10.956;2023-02-01T06:35:06;64.47;49.18;73.70;;
67900;Laerm;54700;51.796;10.956;2023-02-01T06:37:36;63.30;51.27;80.90;;
67900;Laerm;54700;51.796;10.956;2023-02-01T06:40:16;60.39;44.04;70.42;;
67900;Laerm;54700;51.796;10.956;2023-02-01T06:42:55;63.08;47.34;70.65;;
67900;Laerm;54700;51.796;10.956;2023-02-01T06:45:33;63.31;49.84;71.53;;
67900;Laerm;54700;51.796;10.956;2023-02-01T06:48:05;63.16;44.55;71.47;;
67900;Laerm;54700;51.796;10.956;2023-02-01T06:50:42;64.68;52.48;72.97;;
67900;Laerm;54700;51.796;10.956;2023-02-01T06:53:32;64.98;48.57;74.17;;
67900;Laerm;54700;51.796;10.956;2023-02-01T06:56:16;65.65;48.51;76.17;;
67900;Laerm;54700;51.796;10.956;2023-02-01T06:59:04;64.65;44.33;72.50;;
67900;Laerm;54700;51.796;10.956;2023-02-01T07:04:27;64.79;45.67;73.22;;
67900;Laerm;54700;51.796;10.956;2023-02-01T07:07:20;62.16;45.00;72.54;;
67900;Laerm;54700;51.796;10.956;2023-02-01T07:10:17;63.26;46.83;72.12;;
67900;Laerm;54700;51.796;10.956;2023-02-01T07:12:47;59.86;42.87;70.80;;
67900;Laerm;54700;51.796;10.956;2023-02-01T07:15:50;62.07;42.25;77.63;;
67900;Laerm;54700;51.796;10.956;2023-02-01T07:18:42;62.10;44.12;73.77;;
67900;Laerm;54700;51.796;10.956;2023-02-01T07:21:35;63.33;45.38;72.31;;
67900;Laerm;54700;51.796;10.956;2023-02-01T07:24:18;63.25;43.48;73.77;;
67900;Laerm;54700;51.796;10.956;2023-02-01T07:26:58;63.55;48.63;71.89;;
67900;Laerm;54700;51.796;10.956;2023-02-01T07:29:34;63.02;45.09;75.88;;
67900;Laerm;54700;51.796;10.956;2023-02-01T07:32:09;63.95;43.11;73.57;;
67900;Laerm;54700;51.796;10.956;2023-02-01T07:34:49;64.28;47.18;73.01;;
67900;Laerm;54700;51.796;10.956;2023-02-01T07:37:31;64.86;49.45;71.87;;
67900;Laerm;54700;51.796;10.956;2023-02-01T07:40:29;62.75;46.81;72.98;;
67900;Laerm;54700;51.796;10.956;2023-02-01T07:43:17;66.46;46.43;75.96;;
67900;Laerm;54700;51.796;10.956;2023-02-01T07:45:57;66.01;44.05;78.86;;
67900;Laerm;54700;51.796;10.956;2023-02-01T07:48:29;65.98;50.09;73.60;;
67900;Laerm;54700;51.796;10.956;2023-02-01T07:51:28;63.99;46.07;72.75;;
67900;Laerm;54700;51.796;10.956;2023-02-01T07:54:03;66.61;49.23;73.05;;
67900;Laerm;54700;51.796;10.956;2023-02-01T07:56:56;64.87;46.03;74.01;;
67900;Laerm;54700;51.796;10.956;2023-02-01T07:59:54;66.53;52.46;81.30;;
67900;Laerm;54700;51.796;10.956;2023-02-01T08:02:59;64.59;49.38;75.71;;
67900;Laerm;54700;51.796;10.956;2023-02-01T08:05:36;65.45;51.09;78.05;;
67900;Laerm;54700;51.796;10.956;2023-02-01T08:08:09;62.17;48.99;70.55;;
67900;Laerm;54700;51.796;10.956;2023-02-01T08:11:03;64.55;49.00;72.78;;
67900;Laerm;54700;51.796;10.956;2023-02-01T08:14:11;64.86;52.52;72.17;;
67900;Laerm;54700;51.796;10.956;2023-02-01T08:16:51;65.54;50.90;72.92;;
67900;Laerm;54700;51.796;10.956;2023-02-01T08:19:43;65.41;45.75;75.26;;
67900;Laerm;54700;51.796;10.956;2023-02-01T08:22:25;64.69;45.13;75.81;;
67900;Laerm;54700;51.796;10.956;2023-02-01T08:25:13;63.83;47.42;72.51;;
67900;Laerm;54700;51.796;10.956;2023-02-01T08:27:46;64.13;46.49;72.87;;
67900;Laerm;54700;51.796;10.956;2023-02-01T08:30:20;65.38;50.98;73.17;;
67900;Laerm;54700;51.796;10.956;2023-02-01T08:36:47;65.93;51.35;77.73;;
67900;Laerm;54700;51.796;10.956;2023-02-01T08:39:37;64.46;47.46;74.36;;
67900;Laerm;54700;51.796;10.956;2023-02-01T08:42:41;78.31;53.92;101.12;;
67900;Laerm;54700;51.796;10.956;2023-02-01T08:45:58;64.04;49.63;74.34;;
67900;Laerm;54700;51.796;10.956;2023-02-01T08:49:04;63.94;47.62;78.00;;
67900;Laerm;54700;51.796;10.956;2023-02-01T08:51:47;65.10;50.53;73.45;;
67900;Laerm;54700;51.796;10.956;2023-02-01T08:57:46;65.22;55.59;78.42;;
67900;Laerm;54700;51.796;10.956;2023-02-01T09:00:42;66.15;53.66;74.99;;
67900;Laerm;54700;51.796;10.956;2023-02-01T09:03:22;64.85;49.07;77.95;;
67900;Laerm;54700;51.796;10.956;2023-02-01T09:06:43;64.85;44.08;80.26;;
67900;Laerm;54700;51.796;10.956;2023-02-01T09:09:14;64.39;47.52;72.04;;
67900;Laerm;54700;51.796;10.956;2023-02-01T09:12:25;65.14;43.76;77.52;;
67900;Laerm;54700;51.796;10.956;2023-02-01T09:15:05;62.87;49.31;72.06;;
67900;Laerm;54700;51.796;10.956;2023-02-01T09:17:41;63.22;49.81;71.10;;
67900;Laerm;54700;51.796;10.956;2023-02-01T09:20:31;62.53;49.51;71.69;;
67900;Laerm;54700;51.796;10.956;2023-02-01T09:23:34;65.65;50.65;82.86;;
67900;Laerm;54700;51.796;10.956;2023-02-01T09:26:08;64.05;48.34;73.31;;
67900;Laerm;54700;51.796;10.956;2023-02-01T09:31:58;63.78;48.77;72.17;;
67900;Laerm;54700;51.796;10.956;2023-02-01T09:34:32;65.86;48.32;75.15;;
67900;Laerm;54700;51.796;10.956;2023-02-01T09:37:28;64.47;50.95;75.82;;
67900;Laerm;54700;51.796;10.956;2023-02-01T09:46:43;64.49;48.66;81.54;;
67900;Laerm;54700;51.796;10.956;2023-02-01T09:52:13;63.06;47.34;76.89;;
67900;Laerm;54700;51.796;10.956;2023-02-01T09:54:56;65.09;50.08;76.42;;
67900;Laerm;54700;51.796;10.956;2023-02-01T09:57:55;62.54;50.93;72.51;;
67900;Laerm;54700;51.796;10.956;2023-02-01T10:03:26;63.29;50.19;73.45;;
67900;Laerm;54700;51.796;10.956;2023-02-01T10:06:18;64.55;42.98;78.10;;
67900;Laerm;54700;51.796;10.956;2023-02-01T10:09:14;62.47;43.83;72.65;;
67900;Laerm;54700;51.796;10.956;2023-02-01T10:18:33;61.94;46.60;75.34;;
67900;Laerm;54700;51.796;10.956;2023-02-01T10:21:21;64.09;47.97;76.90;;
67900;Laerm;54700;51.796;10.956;2023-02-01T10:27:34;63.02;46.51;73.00;;
67900;Laerm;54700;51.796;10.956;2023-02-01T10:33:30;64.60;51.68;77.04;;
67900;Laerm;54700;51.796;10.956;2023-02-01T10:36:40;62.75;49.94;70.32;;
67900;Laerm;54700;51.796;10.956;2023-02-01T10:40:01;63.68;49.23;76.90;;
67900;Laerm;54700;51.796;10.956;2023-02-01T10:45:43;64.92;51.47;82.88;;
67900;Laerm;54700;51.796;10.956;2023-02-01T10:48:18;62.19;48.48;75.55;;
67900;Laerm;54700;51.796;10.956;2023-02-01T10:51:00;62.49;50.25;71.40;;
67900;Laerm;54700;51.796;10.956;2023-02-01T10:54:09;64.27;52.83;78.27;;
67900;Laerm;54700;51.796;10.956;2023-02-01T10:56:56;59.87;47.98;72.60;;
67900;Laerm;54700;51.796;10.956;2023-02-01T10:59:46;63.55;48.47;75.26;;
67900;Laerm;54700;51.796;10.956;2023-02-01T11:02:50;64.44;48.03;75.64;;
67900;Laerm;54700;51.796;10.956;2023-02-01T11:05:50;62.66;47.31;78.98;;
67900;Laerm;54700;51.796;10.956;2023-02-01T11:08:18;63.96;47.80;81.44;;
67900;Laerm;54700;51.796;10.956;2023-02-01T11:10:57;63.49;47.65;74.00;;
67900;Laerm;54700;51.796;10.956;2023-02-01T11:13:28;63.07;50.68;75.81;;
67900;Laerm;54700;51.796;10.956;2023-02-01T11:16:19;62.17;49.63;74.76;;
67900;Laerm;54700;51.796;10.956;2023-02-01T11:18:53;62.82;51.42;72.71;;
67900;Laerm;54700;51.796;10.956;2023-02-01T11:21:30;64.18;47.32;77.60;;
67900;Laerm;54700;51.796;10.956;2023-02-01T11:27:22;60.98;46.38;72.93;;
67900;Laerm;54700;51.796;10.956;2023-02-01T11:29:52;61.96;47.84;69.92;;
67900;Laerm;54700;51.796;10.956;2023-02-01T11:32:22;61.82;46.97;70.78;;
67900;Laerm;54700;51.796;10.956;2023-02-01T11:34:53;61.76;45.85;70.40;;
67900;Laerm;54700;51.796;10.956;2023-02-01T11:37:26;61.31;46.73;71.90;;
67900;Laerm;54700;51.796;10.956;2023-02-01T11:42:58;64.62;48.60;79.76;;
67900;Laerm;54700;51.796;10.956;2023-02-01T11:45:27;63.64;47.75;74.08;;
67900;Laerm;54700;51.796;10.956;2023-02-01T11:47:56;62.68;47.60;71.99;;
67900;Laerm;54700;51.796;10.956;2023-02-01T11:50:35;62.92;46.06;73.62;;
67900;Laerm;54700;51.796;10.956;2023-02-01T11:53:31;62.59;46.30;74.51;;
67900;Laerm;54700;51.796;10.956;2023-02-01T11:56:11;62.33;50.34;70.46;;
67900;Laerm;54700;51.796;10.956;2023-02-01T11:59:26;62.04;48.50;76.11;;
67900;Laerm;54700;51.796;10.956;2023-02-01T12:02:27;63.66;48.72;82.91;;
67900;Laerm;54700;51.796;10.956;2023-02-01T12:05:33;63.55;49.95;73.39;;
67900;Laerm;54700;51.796;10.956;2023-02-01T12:08:14;63.65;48.42;70.66;;
67900;Laerm;54700;51.796;10.956;2023-02-01T12:10:55;67.53;49.99;77.43;;
67900;Laerm;54700;51.796;10.956;2023-02-01T12:13:37;66.37;49.38;79.88;;
67900;Laerm;54700;51.796;10.956;2023-02-01T12:16:19;64.05;50.68;72.69;;
67900;Laerm;54700;51.796;10.956;2023-02-01T12:21:52;61.74;46.28;70.53;;
67900;Laerm;54700;51.796;10.956;2023-02-01T12:24:39;62.12;45.29;69.19;;
67900;Laerm;54700;51.796;10.956;2023-02-01T12:27:32;63.61;47.63;72.98;;
67900;Laerm;54700;51.796;10.956;2023-02-01T12:33:04;65.08;49.40;74.89;;
67900;Laerm;54700;51.796;10.956;2023-02-01T12:36:02;63.33;50.12;74.44;;
67900;Laerm;54700;51.796;10.956;2023-02-01T12:38:46;65.48;45.73;76.33;;
67900;Laerm;54700;51.796;10.956;2023-02-01T12:41:37;65.94;42.97;78.43;;
67900;Laerm;54700;51.796;10.956;2023-02-01T12:44:12;63.87;47.55;76.92;;
67900;Laerm;54700;51.796;10.956;2023-02-01T12:46:48;63.57;50.60;71.77;;
67900;Laerm;54700;51.796;10.956;2023-02-01T12:49:24;64.30;46.87;78.20;;
67900;Laerm;54700;51.796;10.956;2023-02-01T12:52:07;64.68;50.73;73.03;;
67900;Laerm;54700;51.796;10.956;2023-02-01T12:54:46;61.64;41.11;72.73;;
67900;Laerm;54700;51.796;10.956;2023-02-01T12:57:30;62.31;42.46;74.14;;
67900;Laerm;54700;51.796;10.956;2023-02-01T13:00:06;60.32;41.01;70.65;;
67900;Laerm;54700;51.796;10.956;2023-02-01T13:02:50;62.76;42.86;74.38;;
67900;Laerm;54700;51.796;10.956;2023-02-01T13:05:21;64.14;40.13;76.08;;
67900;Laerm;54700;51.796;10.956;2023-02-01T13:08:02;64.03;47.99;73.62;;
67900;Laerm;54700;51.796;10.956;2023-02-01T13:10:34;62.21;43.80;70.45;;
67900;Laerm;54700;51.796;10.956;2023-02-01T13:13:11;62.98;46.56;70.60;;
67900;Laerm;54700;51.796;10.956;2023-02-01T13:16:05;61.99;44.47;71.01;;
67900;Laerm;54700;51.796;10.956;2023-02-01T13:18:36;63.82;46.84;82.08;;
67900;Laerm;54700;51.796;10.956;2023-02-01T13:21:10;61.84;44.29;69.87;;
67900;Laerm;54700;51.796;10.956;2023-02-01T13:23:43;64.01;47.96;76.39;;
67900;Laerm;54700;51.796;10.956;2023-02-01T13:26:16;61.73;41.83;69.99;;
67900;Laerm;54700;51.796;10.956;2023-02-01T13:28:46;61.89;43.38;69.37;;
67900;Laerm;54700;51.796;10.956;2023-02-01T13:31:59;62.62;43.80;74.48;;
67900;Laerm;54700;51.796;10.956;2023-02-01T13:34:58;64.09;48.49;74.50;;
67900;Laerm;54700;51.796;10.956;2023-02-01T13:37:39;62.45;49.47;72.00;;
67900;Laerm;54700;51.796;10.956;2023-02-01T13:40:31;65.06;50.20;76.29;;
67900;Laerm;54700;51.796;10.956;2023-02-01T13:43:11;63.59;45.71;70.99;;
67900;Laerm;54700;51.796;10.956;2023-02-01T13:45:46;63.16;51.37;70.34;;
67900;Laerm;54700;51.796;10.956;2023-02-01T13:48:21;64.36;52.43;71.99;;
67900;Laerm;54700;51.796;10.956;2023-02-01T13:50:53;64.05;43.25;76.28;;
67900;Laerm;54700;51.796;10.956;2023-02-01T13:53:28;63.03;47.19;72.80;;
67900;Laerm;54700;51.796;10.956;2023-02-01T13:56:07;66.62;54.55;74.94;;
67900;Laerm;54700;51.796;10.956;2023-02-01T13:58:43;64.96;53.96;74.96;;
67900;Laerm;54700;51.796;10.956;2023-02-01T14:01:43;65.27;48.86;74.72;;
67900;Laerm;54700;51.796;10.956;2023-02-01T14:04:46;67.59;53.36;78.25;;
67900;Laerm;54700;51.796;10.956;2023-02-01T14:07:25;68.19;56.09;77.33;;
67900;Laerm;54700;51.796;10.956;2023-02-01T14:13:25;66.27;48.44;73.44;;
67900;Laerm;54700;51.796;10.956;2023-02-01T14:16:14;65.51;49.69;74.92;;
67900;Laerm;54700;51.796;10.956;2023-02-01T14:19:18;66.20;48.18;75.27;;
67900;Laerm;54700;51.796;10.956;2023-02-01T14:21:52;66.90;54.87;73.28;;
67900;Laerm;54700;51.796;10.956;2023-02-01T14:24:44;64.55;50.10;71.54;;
67900;Laerm;54700;51.796;10.956;2023-02-01T14:27:20;66.28;52.81;74.65;;
67900;Laerm;54700;51.796;10.956;2023-02-01T14:29:53;66.70;55.35;77.43;;
67900;Laerm;54700;51.796;10.956;2023-02-01T14:32:30;65.36;44.96;73.66;;
67900;Laerm;54700;51.796;10.956;2023-02-01T14:35:00;65.49;47.97;74.56;;
67900;Laerm;54700;51.796;10.956;2023-02-01T14:37:30;66.78;54.13;74.46;;
67900;Laerm;54700;51.796;10.956;2023-02-01T14:40:15;66.96;54.29;74.77;;
67900;Laerm;54700;51.796;10.956;2023-02-01T14:42:52;68.13;48.52;76.04;;
67900;Laerm;54700;51.796;10.956;2023-02-01T14:45:52;68.18;55.71;75.96;;
67900;Laerm;54700;51.796;10.956;2023-02-01T14:48:46;68.67;52.49;77.07;;
67900;Laerm;54700;51.796;10.956;2023-02-01T14:51:19;67.65;49.01;75.38;;
67900;Laerm;54700;51.796;10.956;2023-02-01T14:53:53;68.74;54.12;74.64;;
67900;Laerm;54700;51.796;10.956;2023-02-01T14:56:21;69.05;59.69;80.97;;
67900;Laerm;54700;51.796;10.956;2023-02-01T14:59:01;70.60;53.16;81.53;;
67900;Laerm;54700;51.796;10.956;2023-02-01T15:01:37;70.35;49.88;79.70;;
67900;Laerm;54700;51.796;10.956;2023-02-01T15:04:13;70.42;50.47;82.45;;
67900;Laerm;54700;51.796;10.956;2023-02-01T15:06:44;68.23;49.12;76.94;;
67900;Laerm;54700;51.796;10.956;2023-02-01T15:09:18;68.75;49.19;80.94;;
67900;Laerm;54700;51.796;10.956;2023-02-01T15:12:05;68.04;49.70;79.05;;
67900;Laerm;54700;51.796;10.956;2023-02-01T15:14:44;67.52;51.17;75.28;;
67900;Laerm;54700;51.796;10.956;2023-02-01T15:17:20;70.00;60.60;76.51;;
67900;Laerm;54700;51.796;10.956;2023-02-01T15:20:01;69.21;55.78;77.14;;
67900;Laerm;54700;51.796;10.956;2023-02-01T15:22:31;70.14;55.86;78.84;;
67900;Laerm;54700;51.796;10.956;2023-02-01T15:25:17;69.61;52.73;78.68;;
67900;Laerm;54700;51.796;10.956;2023-02-01T15:27:44;70.03;54.28;79.39;;
67900;Laerm;54700;51.796;10.956;2023-02-01T15:30:24;70.28;53.94;79.76;;
67900;Laerm;54700;51.796;10.956;2023-02-01T15:33:03;70.24;55.21;79.73;;
67900;Laerm;54700;51.796;10.956;2023-02-01T15:35:47;70.32;54.16;79.41;;
67900;Laerm;54700;51.796;10.956;2023-02-01T15:38:41;69.47;58.87;81.72;;
67900;Laerm;54700;51.796;10.956;2023-02-01T15:41:12;68.48;54.66;77.54;;